YPPD/PHE METAR and TAF weather

Enter ICAO airport designator
Station Type Date Time Source
YPPD METAR 2019/08/23 18:00 UTC NOAA

YPPD 231800Z AUTO 19006KT 9999 // NCD 15/09 Q1016


Station Type Date Time Source
YPPD Decoded METAR 2019/08/23 18:00 UTC NOAA

Station name not available
Aug 23, 2019 - 02:00 PM EDT / 2019.08.23 1800 UTC
Wind: from the S (190 degrees) at 7 MPH (6 KT):0
Visibility: greater than 7 mile(s):0
Temperature: 59 F (15 C)
Dew Point: 48 F (9 C)
Relative Humidity: 67%
Pressure (altimeter): 30.00 in. Hg (1016 hPa)
ob: YPPD 231800Z AUTO 19006KT 9999 // NCD 15/09 Q1016
cycle: 18

Station Type Date Time Source
YPPD TAF 2019/08/23 18:36 UTC NOAA

TAF YPPD 231701Z 2318/2418 20007KT CAVOK
FM240100 14010KT CAVOK
FM240400 02012KT CAVOK
FM240800 30012KT CAVOK

Example: see airport list